Adamsburg, Pennsylvania
Current Conditions -  °F | °C
As of 6:50 AM on Wednesday 28 Jan 2015 (Local Time) from KLBE Reporting Station
Broken Clouds Broken Clouds  
Wind Chill: -5°   Ceiling: 1900
Heat Index:   Visibility: 10mi
Dew Point:   Wind: 7mph
Humidity: 100%   Direction: 220°SW
Pressure: 30.28"   Gusts: NA
Location:  40.31°N, 79.66°W
Report Text: KLBE 281150Z 22006KT 10SM BKN019 M14/M14 A3028
Loading
Personal Weather Stations






























Interactive Weather Map New forecast layout! Learn more

10-Day Weather Forecast

Advertisements
Track Severe Weather on mobile